Time;durP1;ratioP1;P1;durP2;ratioP2;P2;SDS_P1;SDS_P2;PMS_P1;PMS_P2;Temp;Humidity;BMP_temperature;BMP_pressure;BME280_temperature;BME280_humidity;BME280_pressure;Samples;Min_cycle;Max_cycle;Signal;HPM_P1;HPM_P2
2021/01/25 00:07:00;;;;;;;3.10;1.30;;;8.60;64.10;;;;;;20793801;28;20411;-73
2021/01/25 00:17:02;;;;;;;3.67;0.75;;;8.60;64.10;;;;;;20811008;28;20025;-73
2021/01/25 00:27:03;;;;;;;1.58;1.08;;;8.60;64.00;;;;;;20809856;28;20540;-73
2021/01/25 00:37:03;;;;;;;2.47;1.52;;;8.60;64.00;;;;;;20809594;28;20033;-74
2021/01/25 00:47:04;;;;;;;2.72;1.05;;;8.60;63.90;;;;;;20808392;28;20488;-75
2021/01/25 00:57:05;;;;;;;1.05;0.50;;;8.50;63.90;;;;;;20825499;28;20464;-74
2021/01/25 01:07:06;;;;;;;3.22;1.13;;;8.60;63.90;;;;;;20790949;28;20043;-73
2021/01/25 01:17:06;;;;;;;1.33;0.60;;;8.50;63.90;;;;;;20807130;28;20061;-75
2021/01/25 01:27:07;;;;;;;1.10;0.90;;;8.60;63.90;;;;;;20783712;28;20083;-74
2021/01/25 01:37:08;;;;;;;1.38;0.88;;;8.60;63.90;;;;;;20783046;28;20132;-74
2021/01/25 01:47:10;;;;;;;0.60;0.60;;;8.60;63.90;;;;;;20805929;28;20045;-74
2021/01/25 01:57:11;;;;;;;1.60;0.95;;;8.50;63.80;;;;;;20785212;28;20061;-73
2021/01/25 02:07:12;;;;;;;2.42;1.27;;;8.60;63.80;;;;;;20804854;28;20042;-75
2021/01/25 02:17:13;;;;;;;1.37;0.90;;;8.50;63.70;;;;;;20822412;28;20021;-74
2021/01/25 02:27:25;;;;;;;1.98;1.77;;;8.50;63.70;;;;;;20790350;28;20291;-73
2021/01/25 02:37:26;;;;;;;1.70;0.85;;;8.50;63.70;;;;;;20787819;28;20048;-73
2021/01/25 02:47:26;;;;;;;2.03;1.13;;;8.50;63.70;;;;;;20817788;28;20037;-74
2021/01/25 02:57:27;;;;;;;1.90;1.13;;;8.50;63.70;;;;;;20788910;28;20403;-73
2021/01/25 03:07:28;;;;;;;2.35;1.52;;;8.50;63.70;;;;;;20799963;28;20056;-76
2021/01/25 03:17:28;;;;;;;3.42;1.67;;;8.50;63.70;;;;;;20782742;28;20075;-74
2021/01/25 03:27:29;;;;;;;1.70;1.17;;;8.50;63.70;;;;;;20814169;28;20638;-75
2021/01/25 03:37:30;;;;;;;3.60;2.38;;;8.50;63.70;;;;;;20812913;28;20061;-73
2021/01/25 03:47:31;;;;;;;1.73;0.77;;;8.50;63.70;;;;;;20794075;28;20424;-76
2021/01/25 03:57:31;;;;;;;3.83;1.23;;;8.50;63.70;;;;;;20829921;28;20032;-74
2021/01/25 04:07:32;;;;;;;1.88;1.25;;;8.50;63.70;;;;;;20809328;28;20076;-74
2021/01/25 04:17:32;;;;;;;7.88;1.50;;;8.50;63.70;;;;;;20779661;28;20053;-74
2021/01/25 04:27:33;;;;;;;2.75;1.20;;;8.50;63.70;;;;;;20784277;28;20037;-73
2021/01/25 04:37:34;;;;;;;0.45;0.43;;;8.50;63.70;;;;;;20809465;28;20057;-76
2021/01/25 04:47:46;;;;;;;2.28;1.33;;;8.50;63.70;;;;;;20807971;28;20041;-74
2021/01/25 04:57:47;;;;;;;3.15;1.38;;;8.50;63.70;;;;;;20807833;28;20484;-74
2021/01/25 05:07:48;;;;;;;3.45;1.58;;;8.50;63.80;;;;;;20807372;28;20037;-73
2021/01/25 05:17:49;;;;;;;3.17;1.90;;;8.50;63.90;;;;;;20807037;28;20068;-74
2021/01/25 05:27:49;;;;;;;4.32;1.63;;;8.60;64.00;;;;;;20823923;28;20076;-73
2021/01/25 05:37:55;;;;;;;4.93;2.08;;;8.80;63.90;;;;;;20806288;28;20029;-74
2021/01/25 05:47:57;;;;;;;3.13;1.58;;;8.90;63.20;;;;;;20804645;28;20055;-74
2021/01/25 05:58:00;;;;;;;10.02;2.20;;;9.10;62.50;;;;;;20762778;28;20518;-73
2021/01/25 06:08:42;;;;;;;6.10;2.35;;;9.20;62.00;;;;;;20806781;28;20045;-75
2021/01/25 06:18:47;;;;;;;3.35;2.40;;;9.10;61.50;;;;;;20630021;28;20373;-73
2021/01/25 06:28:49;;;;;;;2.33;1.40;;;9.00;61.20;;;;;;20801452;28;20045;-74
2021/01/25 06:38:50;;;;;;;4.93;1.67;;;9.00;61.40;;;;;;20817354;28;20060;-75
2021/01/25 06:48:53;;;;;;;2.45;1.55;;;8.90;61.50;;;;;;20801743;28;20045;-72
2021/01/25 06:58:58;;;;;;;7.03;2.90;;;8.80;61.70;;;;;;20800212;28;20028;-73
2021/01/25 07:09:04;;;;;;;4.63;2.72;;;8.70;61.90;;;;;;20792375;28;20042;-74
2021/01/25 07:19:05;;;;;;;4.17;1.33;;;8.60;62.10;;;;;;20812631;28;20043;-73
2021/01/25 07:29:09;;;;;;;3.17;1.65;;;8.60;62.30;;;;;;20765721;28;20480;-73
2021/01/25 07:39:12;;;;;;;5.25;1.75;;;8.60;62.50;;;;;;20783790;28;20280;-73
2021/01/25 07:49:12;;;;;;;5.15;2.40;;;8.60;62.60;;;;;;20767056;28;20045;-71
2021/01/25 07:59:18;;;;;;;4.88;2.67;;;8.60;62.60;;;;;;20790993;28;20036;-72
2021/01/25 08:09:21;;;;;;;4.70;1.65;;;8.60;62.60;;;;;;20784154;28;20407;-73
2021/01/25 08:19:25;;;;;;;2.78;1.58;;;8.60;62.60;;;;;;20800461;28;20057;-72
2021/01/25 08:29:29;;;;;;;4.18;1.60;;;8.70;62.70;;;;;;20782602;28;20044;-81
2021/01/25 08:39:41;;;;;;;6.23;2.43;;;8.60;62.20;;;;;;20792953;28;20038;-72
2021/01/25 08:49:42;;;;;;;7.90;2.92;;;8.60;62.40;;;;;;20775499;28;20045;-71
2021/01/25 08:59:44;;;;;;;5.00;2.35;;;8.60;62.50;;;;;;20783149;28;20539;-74
2021/01/25 09:09:46;;;;;;;6.00;2.70;;;8.60;62.50;;;;;;20792215;28;20132;-74
2021/01/25 09:19:47;;;;;;;9.13;3.15;;;8.60;62.60;;;;;;20789803;28;20080;-74
2021/01/25 09:29:48;;;;;;;5.75;2.13;;;8.50;62.50;;;;;;20782703;28;20476;-72
2021/01/25 09:39:49;;;;;;;4.70;2.22;;;8.50;62.50;;;;;;21294729;22;20051;-74
2021/01/25 09:49:49;;;;;;;2.83;1.15;;;8.50;62.50;;;;;;20857502;28;20049;-77
2021/01/25 09:59:51;;;;;;;6.20;2.17;;;8.50;63.10;;;;;;20868678;28;20029;-71
2021/01/25 10:09:54;;;;;;;5.30;2.40;;;8.50;62.50;;;;;;20877506;28;20048;-75
2021/01/25 10:19:55;;;;;;;3.35;1.90;;;8.50;62.50;;;;;;20861834;28;20391;-78
2021/01/25 10:29:55;;;;;;;2.38;1.52;;;8.50;62.50;;;;;;20854635;28;20037;-75
2021/01/25 10:39:56;;;;;;;6.97;1.90;;;8.50;62.50;;;;;;20853069;28;20029;-75
2021/01/25 10:49:57;;;;;;;2.87;1.27;;;8.50;62.40;;;;;;20856587;28;20308;-73
2021/01/25 10:59:57;;;;;;;3.75;1.58;;;8.50;62.50;;;;;;20862874;28;20284;-74
2021/01/25 11:09:58;;;;;;;2.90;0.95;;;8.50;62.40;;;;;;20872406;28;20499;-70
2021/01/25 11:19:58;;;;;;;2.53;1.33;;;8.50;62.50;;;;;;20885401;28;20024;-74
2021/01/25 11:29:59;;;;;;;2.88;1.50;;;8.50;62.40;;;;;;20843147;28;20112;-72
2021/01/25 11:39:59;;;;;;;2.35;1.50;;;8.50;62.40;;;;;;20854046;28;20034;-74
2021/01/25 11:50:00;;;;;;;6.05;1.30;;;8.50;62.40;;;;;;20849200;28;20032;-75
2021/01/25 12:00:04;;;;;;;5.03;1.73;;;8.50;62.30;;;;;;20871194;28;20119;-76
2021/01/25 12:10:06;;;;;;;3.17;1.35;;;8.50;62.20;;;;;;20851161;28;20124;-76
2021/01/25 12:20:07;;;;;;;2.70;1.45;;;8.50;62.10;;;;;;20859085;28;20029;-75
2021/01/25 12:30:15;;;;;;;5.25;1.90;;;8.40;62.10;;;;;;21144960;27;20365;-74
2021/01/25 12:40:16;;;;;;;1.33;1.23;;;8.50;62.20;;;;;;21110202;28;20366;-74
2021/01/25 12:50:16;;;;;;;2.53;1.13;;;8.40;62.10;;;;;;21109381;28;20044;-74
2021/01/25 13:00:20;;;;;;;2.53;1.10;;;8.40;62.20;;;;;;21122280;28;20031;-75
2021/01/25 13:10:20;;;;;;;3.50;1.20;;;8.40;62.20;;;;;;21090838;28;20046;-73
2021/01/25 13:20:24;;;;;;;2.15;1.27;;;8.40;62.30;;;;;;21142096;28;20032;-75
2021/01/25 13:30:24;;;;;;;3.30;1.80;;;8.40;62.40;;;;;;21104422;28;20389;-73
2021/01/25 13:40:27;;;;;;;1.65;0.90;;;8.40;62.30;;;;;;21089731;28;20042;-71
2021/01/25 13:50:28;;;;;;;5.53;1.63;;;8.40;62.30;;;;;;21042106;28;20039;-72
2021/01/25 14:00:31;;;;;;;1.15;0.90;;;8.40;62.30;;;;;;21062705;28;20032;-74
2021/01/25 14:10:31;;;;;;;1.85;1.33;;;8.40;62.40;;;;;;21075669;28;20420;-74
2021/01/25 14:20:32;;;;;;;2.43;1.70;;;8.40;62.40;;;;;;21080920;28;20157;-75
2021/01/25 14:30:33;;;;;;;2.43;1.40;;;8.40;62.40;;;;;;21076154;28;20304;-74
2021/01/25 14:40:34;;;;;;;2.33;0.88;;;8.40;62.40;;;;;;21055202;28;20265;-74
2021/01/25 14:50:35;;;;;;;2.85;1.55;;;8.40;62.40;;;;;;21059294;28;20043;-74
2021/01/25 15:00:35;;;;;;;3.47;1.05;;;8.40;62.30;;;;;;21075950;28;20115;-74
2021/01/25 15:10:36;;;;;;;2.38;1.40;;;8.40;62.30;;;;;;21075519;28;20039;-73
2021/01/25 15:20:36;;;;;;;2.13;1.58;;;8.40;62.70;;;;;;21071667;28;20032;-79
2021/01/25 15:30:37;;;;;;;1.38;0.95;;;8.60;62.80;;;;;;21073661;28;20063;-75
2021/01/25 15:40:38;;;;;;;0.28;0.28;;;8.80;62.50;;;;;;21037766;28;20054;-74
2021/01/25 15:50:38;;;;;;;3.13;1.02;;;9.00;62.00;;;;;;21057020;28;20394;-72
2021/01/25 16:00:39;;;;;;;3.20;1.10;;;9.10;61.40;;;;;;21071781;28;20092;-73
2021/01/25 16:10:40;;;;;;;2.65;1.15;;;9.20;61.00;;;;;;21063290;28;20040;-75
2021/01/25 16:20:40;;;;;;;2.45;1.20;;;9.20;60.30;;;;;;21055005;28;20032;-77
2021/01/25 16:30:41;;;;;;;0.45;0.45;;;9.10;60.10;;;;;;21024549;28;20071;-76
2021/01/25 16:40:44;;;;;;;1.40;0.93;;;9.00;60.20;;;;;;21032203;28;20036;-76
2021/01/25 16:50:47;;;;;;;3.85;1.40;;;8.90;60.60;;;;;;21047139;28;20032;-76
2021/01/25 17:00:49;;;;;;;1.95;0.70;;;8.80;60.90;;;;;;21063721;28;20043;-76
2021/01/25 17:10:49;;;;;;;1.10;0.63;;;8.80;61.10;;;;;;21039414;28;20028;-75
2021/01/25 17:20:50;;;;;;;1.50;1.35;;;8.70;61.30;;;;;;21084717;28;20028;-75
2021/01/25 17:30:52;;;;;;;1.15;1.02;;;8.60;61.50;;;;;;21067841;28;20282;-71
2021/01/25 17:40:56;;;;;;;2.22;1.35;;;8.70;61.70;;;;;;21051459;28;20042;-72
2021/01/25 17:50:56;;;;;;;1.05;0.75;;;8.60;61.80;;;;;;21067205;28;20032;-75
2021/01/25 18:00:58;;;;;;;3.35;0.73;;;8.60;62.00;;;;;;21062218;28;20416;-73
2021/01/25 18:10:59;;;;;;;2.05;1.40;;;8.50;62.10;;;;;;21081011;28;20039;-74
2021/01/25 18:20:59;;;;;;;6.25;1.70;;;8.50;62.10;;;;;;21029209;28;20085;-71
2021/01/25 18:31:00;;;;;;;4.47;2.75;;;8.50;62.10;;;;;;21079240;28;20032;-72
2021/01/25 18:41:01;;;;;;;1.85;1.42;;;8.50;62.10;;;;;;21072217;28;20042;-70
2021/01/25 18:51:01;;;;;;;1.38;0.90;;;8.50;62.10;;;;;;21052002;28;20062;-70
2021/01/25 19:01:02;;;;;;;2.30;1.27;;;8.50;62.10;;;;;;21076642;28;20617;-70
2021/01/25 19:11:04;;;;;;;1.50;0.85;;;8.50;62.10;;;;;;21072643;28;20039;-70
2021/01/25 19:21:06;;;;;;;1.73;1.05;;;8.50;62.20;;;;;;21094774;28;20104;-70
2021/01/25 19:31:07;;;;;;;2.38;1.23;;;8.50;62.10;;;;;;21048180;28;20028;-70
2021/01/25 19:41:07;;;;;;;1.70;1.38;;;8.50;62.10;;;;;;21023283;28;20039;-70
2021/01/25 19:51:09;;;;;;;1.30;0.87;;;8.50;62.20;;;;;;21049754;28;20040;-71
2021/01/25 20:01:10;;;;;;;2.30;1.55;;;8.50;62.20;;;;;;21070412;28;20750;-70
2021/01/25 20:11:11;;;;;;;2.17;1.15;;;8.50;62.10;;;;;;21072582;28;20115;-72
2021/01/25 20:21:12;;;;;;;1.27;1.08;;;8.40;62.10;;;;;;21067589;28;20067;-70
2021/01/25 20:31:13;;;;;;;1.13;0.85;;;8.50;62.20;;;;;;21068264;28;20036;-73
2021/01/25 20:41:20;;;;;;;3.55;1.50;;;8.50;62.20;;;;;;21069509;28;20506;-70
2021/01/25 20:51:21;;;;;;;2.17;1.13;;;8.40;62.20;;;;;;21085436;28;20500;-71
2021/01/25 21:01:22;;;;;;;1.90;0.93;;;8.40;62.10;;;;;;21067912;28;20040;-72
2021/01/25 21:11:24;;;;;;;2.55;0.98;;;8.40;62.00;;;;;;21067598;28;20036;-71
2021/01/25 21:21:24;;;;;;;2.72;1.60;;;8.40;62.00;;;;;;21066609;28;20036;-72
2021/01/25 21:31:26;;;;;;;1.10;0.70;;;8.40;62.00;;;;;;21083274;28;20039;-70
2021/01/25 21:41:29;;;;;;;3.13;0.77;;;8.40;62.00;;;;;;21082647;28;20054;-70
2021/01/25 21:51:29;;;;;;;2.15;1.23;;;8.40;62.00;;;;;;21064839;28;20093;-71
2021/01/25 22:01:30;;;;;;;1.85;1.13;;;8.40;62.00;;;;;;21046918;28;20698;-70
2021/01/25 22:11:31;;;;;;;1.88;0.93;;;8.40;62.00;;;;;;21063284;28;20050;-70
2021/01/25 22:21:31;;;;;;;1.80;1.27;;;8.40;62.00;;;;;;21064521;28;20410;-70
2021/01/25 22:31:32;;;;;;;6.07;1.95;;;8.40;62.00;;;;;;21080097;28;20278;-69
2021/01/25 22:41:33;;;;;;;1.67;1.08;;;8.40;62.00;;;;;;21043179;28;20126;-70
2021/01/25 22:51:34;;;;;;;1.33;1.23;;;8.30;61.90;;;;;;21044568;28;20044;-70
2021/01/25 23:01:35;;;;;;;1.80;1.00;;;8.40;62.00;;;;;;21071665;28;20538;-69
2021/01/25 23:11:35;;;;;;;1.52;0.82;;;8.30;62.00;;;;;;21059660;28;20039;-72
2021/01/25 23:21:37;;;;;;;3.00;1.65;;;8.40;62.00;;;;;;21076201;28;20128;-71
2021/01/25 23:31:41;;;;;;;1.95;0.98;;;8.30;62.60;;;;;;21059161;28;20062;-70
2021/01/25 23:41:43;;;;;;;1.33;0.75;;;8.30;62.00;;;;;;21069497;28;20048;-69
2021/01/25 23:51:45;;;;;;;2.40;0.80;;;8.30;61.90;;;;;;21074662;28;20104;-69
